createdAt,value
2022-10-09T00:00:11.884Z,96736.22
2022-10-09T00:02:40.016Z,96708.03
2022-10-09T00:05:08.480Z,96706.28
2022-10-09T00:07:37.599Z,96633.59
2022-10-09T00:10:06.245Z,96757.97
2022-10-09T00:12:35.990Z,96764.47
2022-10-09T00:15:03.794Z,96677.06
2022-10-09T00:17:31.543Z,96756.47
2022-10-09T00:19:59.265Z,96774.25
2022-10-09T00:22:26.980Z,96639.56
2022-10-09T00:24:56.053Z,96757.25
2022-10-09T00:27:24.398Z,96724.44
2022-10-09T00:29:52.734Z,96739.91
2022-10-09T00:32:20.428Z,96758.66
2022-10-09T00:34:48.140Z,96759.19
2022-10-09T00:37:16.036Z,96760.94
2022-10-09T00:39:43.731Z,96745.66
2022-10-09T00:42:13.619Z,96625.69
2022-10-09T00:44:49.820Z,96702.72
2022-10-09T00:47:21.830Z,96745.09
2022-10-09T00:49:50.787Z,96725.88
2022-10-09T00:52:18.790Z,96718.94
2022-10-09T00:54:46.487Z,96735.00
2022-10-09T00:57:17.899Z,96736.81
2022-10-09T00:59:46.178Z,96629.59
2022-10-09T01:02:13.883Z,96733.28
2022-10-09T01:04:41.612Z,96727.69
2022-10-09T01:07:24.810Z,96689.78
2022-10-09T01:09:58.015Z,96724.03
2022-10-09T01:12:34.935Z,96652.56
2022-10-09T01:15:10.473Z,96680.16
2022-10-09T01:17:43.920Z,96686.50
2022-10-09T01:20:30.826Z,96668.69
2022-10-09T01:23:12.990Z,96709.06
2022-10-09T01:25:51.538Z,96599.28
2022-10-09T01:28:23.429Z,96545.25
2022-10-09T01:30:51.785Z,96693.03
2022-10-09T01:33:19.814Z,96689.38
2022-10-09T01:35:48.326Z,96674.75
2022-10-09T01:38:17.735Z,96629.81
2022-10-09T01:40:45.878Z,96695.84
2022-10-09T01:43:13.744Z,96604.59
2022-10-09T01:45:44.887Z,96615.03
2022-10-09T01:48:17.532Z,96684.84
2022-10-09T01:50:47.351Z,96692.69
2022-10-09T01:53:22.874Z,96661.56
2022-10-09T01:55:55.672Z,96676.97
2022-10-09T01:58:29.503Z,96687.31
2022-10-09T02:01:03.519Z,96654.41
2022-10-09T02:03:33.070Z,96646.69
2022-10-09T02:06:02.056Z,96687.00
2022-10-09T02:08:33.699Z,96607.16
2022-10-09T02:11:03.069Z,96675.53
2022-10-09T02:13:33.277Z,96673.19
2022-10-09T02:16:11.606Z,96669.19
2022-10-09T02:18:43.608Z,96611.63
2022-10-09T02:21:15.966Z,96663.16
2022-10-09T02:23:46.224Z,96663.56
2022-10-09T02:26:14.627Z,96658.53
2022-10-09T02:28:45.801Z,96653.88
2022-10-09T02:31:21.125Z,96637.94
2022-10-09T02:33:56.499Z,96649.56
2022-10-09T02:36:24.661Z,96603.06
2022-10-09T02:38:52.474Z,96649.38
2022-10-09T02:41:23.317Z,96623.47
2022-10-09T02:43:51.509Z,96649.47
2022-10-09T02:46:20.743Z,96599.84
2022-10-09T02:48:48.697Z,96532.50
2022-10-09T02:51:16.489Z,96649.94
2022-10-09T02:53:45.055Z,96638.97
2022-10-09T02:56:12.968Z,96648.50
2022-10-09T02:58:41.114Z,96642.00
2022-10-09T03:01:09.615Z,96648.75
2022-10-09T03:03:38.797Z,96652.50
2022-10-09T03:06:09.474Z,96608.59
2022-10-09T03:08:37.757Z,96623.72
2022-10-09T03:11:05.695Z,96609.78
2022-10-09T03:13:33.436Z,96531.69
2022-10-09T03:16:05.065Z,96610.50
2022-10-09T03:18:33.277Z,96548.47
2022-10-09T03:21:02.370Z,96558.06
2022-10-09T03:23:30.083Z,96562.78
2022-10-09T03:25:58.329Z,96593.66
2022-10-09T03:28:26.857Z,96632.91
2022-10-09T03:30:55.707Z,96633.41
2022-10-09T03:33:23.896Z,96649.38
2022-10-09T03:35:51.593Z,96538.50
2022-10-09T03:38:20.939Z,96627.06
2022-10-09T03:40:48.665Z,96500.38
2022-10-09T03:43:16.389Z,96602.19
2022-10-09T03:45:44.624Z,96616.06
2022-10-09T03:48:13.910Z,96629.28
2022-10-09T03:50:42.396Z,96631.09
2022-10-09T03:53:11.567Z,96624.50
2022-10-09T03:55:41.027Z,96605.13
2022-10-09T03:58:10.673Z,96622.13
2022-10-09T04:00:38.463Z,96495.91
2022-10-09T04:03:06.244Z,96617.91
2022-10-09T04:05:35.815Z,96574.72
2022-10-09T04:08:03.505Z,96593.22
2022-10-09T04:10:31.280Z,96490.69
2022-10-09T04:13:00.359Z,96596.38
2022-10-09T04:15:28.052Z,96616.25
2022-10-09T04:17:55.935Z,96601.94
2022-10-09T04:20:23.657Z,96552.88
2022-10-09T04:22:51.563Z,96560.13
2022-10-09T04:25:19.440Z,96617.81
2022-10-09T04:27:47.172Z,96632.53
2022-10-09T04:30:16.423Z,96623.41
2022-10-09T04:32:44.129Z,96615.19
2022-10-09T04:35:11.851Z,96621.16
2022-10-09T04:37:40.758Z,96616.16
2022-10-09T04:40:08.998Z,96492.75
2022-10-09T04:42:36.673Z,96533.50
2022-10-09T04:45:05.239Z,96497.31
2022-10-09T04:47:34.814Z,96611.84
2022-10-09T04:50:02.816Z,96493.13
2022-10-09T04:52:30.543Z,96594.53
2022-10-09T04:54:58.285Z,96552.03
2022-10-09T04:57:25.998Z,96588.66
2022-10-09T04:59:53.730Z,96619.00
2022-10-09T05:02:21.528Z,96544.50
2022-10-09T05:04:50.700Z,96609.72
2022-10-09T05:07:18.403Z,96605.50
2022-10-09T05:09:46.079Z,96600.25
2022-10-09T05:12:13.785Z,96604.31
2022-10-09T05:14:41.485Z,96595.03
2022-10-09T05:17:14.170Z,96550.56
2022-10-09T05:19:42.579Z,96607.56
2022-10-09T05:22:11.601Z,96616.56
2022-10-09T05:24:39.331Z,96585.00
2022-10-09T05:27:07.024Z,96600.81
2022-10-09T05:29:34.764Z,96586.03
2022-10-09T05:32:02.515Z,96601.38
2022-10-09T05:34:30.275Z,96594.88
2022-10-09T05:36:57.999Z,96564.03
2022-10-09T05:39:27.099Z,96467.03
2022-10-09T05:41:54.808Z,96579.94
2022-10-09T05:44:22.588Z,96497.19
2022-10-09T05:46:50.330Z,96518.66
2022-10-09T05:49:18.015Z,96530.34
2022-10-09T05:51:45.822Z,96604.78
2022-10-09T05:54:15.789Z,96578.09
2022-10-09T05:56:46.182Z,96597.00
2022-10-09T05:59:15.522Z,96522.41
2022-10-09T06:01:45.230Z,96590.81
2022-10-09T06:04:15.201Z,96597.75
2022-10-09T06:06:43.224Z,96602.25
2022-10-09T06:09:12.692Z,96570.44
2022-10-09T06:11:41.578Z,96592.53
2022-10-09T06:14:12.653Z,96603.16
2022-10-09T06:16:42.643Z,96458.22
2022-10-09T06:19:13.170Z,96595.69
2022-10-09T06:21:41.652Z,96534.09
2022-10-09T06:24:09.699Z,96557.38
2022-10-09T06:26:37.345Z,96554.56
2022-10-09T06:29:05.029Z,96614.13
2022-10-09T06:31:34.366Z,96594.06
2022-10-09T06:34:03.164Z,96571.97
2022-10-09T06:36:33.374Z,96485.81
2022-10-09T06:39:02.191Z,96607.94
2022-10-09T06:41:30.766Z,96610.28
2022-10-09T06:43:59.979Z,96605.56
2022-10-09T06:46:30.064Z,96596.56
2022-10-09T06:48:59.965Z,96502.88
2022-10-09T06:51:28.950Z,96622.56
2022-10-09T06:53:59.510Z,96608.06
2022-10-09T06:56:29.413Z,96600.63
2022-10-09T06:58:57.664Z,96615.59
2022-10-09T07:01:27.749Z,96503.44
2022-10-09T07:03:57.439Z,96618.09
2022-10-09T07:06:28.052Z,96572.94
2022-10-09T07:08:59.703Z,96592.19
2022-10-09T07:11:29.385Z,96612.72
2022-10-09T07:13:58.915Z,96585.25
2022-10-09T07:16:29.544Z,96621.28
2022-10-09T07:18:58.042Z,96583.44
2022-10-09T07:21:27.252Z,96607.00
2022-10-09T07:23:55.042Z,96622.84
2022-10-09T07:26:26.082Z,96622.22
2022-10-09T07:28:54.741Z,96626.97
2022-10-09T07:31:24.702Z,96625.72
2022-10-09T07:33:54.046Z,96582.88
2022-10-09T07:36:21.757Z,96625.28
2022-10-09T07:38:52.687Z,96622.84
2022-10-09T07:41:21.190Z,96591.28
2022-10-09T07:43:49.220Z,96627.59
2022-10-09T07:46:18.840Z,96611.72
2022-10-09T07:48:47.189Z,96601.50
2022-10-09T07:51:17.097Z,96620.31
2022-10-09T07:53:45.200Z,96625.34
2022-10-09T07:56:17.249Z,96588.53
2022-10-09T07:58:50.185Z,96573.31
2022-10-09T08:01:20.349Z,96599.75
2022-10-09T08:03:49.157Z,96621.53
2022-10-09T08:06:17.451Z,96597.91
2022-10-09T08:08:45.298Z,96553.25
2022-10-09T08:11:16.897Z,96631.06
2022-10-09T08:13:46.539Z,96626.91
2022-10-09T08:16:17.128Z,96620.53
2022-10-09T08:18:44.854Z,96628.25
2022-10-09T08:21:14.184Z,96618.53
2022-10-09T08:23:42.395Z,96619.66
2022-10-09T08:26:15.984Z,96498.94
2022-10-09T08:28:44.331Z,96582.19
2022-10-09T08:31:13.309Z,96611.22
2022-10-09T08:33:42.516Z,96600.09
2022-10-09T08:36:12.487Z,96599.09
2022-10-09T08:38:48.360Z,96603.38
2022-10-09T08:41:30.139Z,96602.91
2022-10-09T08:44:03.731Z,96505.72
2022-10-09T08:46:43.546Z,96605.28
2022-10-09T08:49:21.513Z,96585.00
2022-10-09T08:51:49.743Z,96492.34
2022-10-09T08:54:27.471Z,96592.16
2022-10-09T08:56:56.569Z,96597.19
2022-10-09T08:59:24.244Z,96528.00
2022-10-09T09:02:03.660Z,96591.41
2022-10-09T09:04:56.394Z,96583.50
2022-10-09T09:07:33.953Z,96580.84
2022-10-09T09:10:15.168Z,96552.88
2022-10-09T09:12:50.235Z,96551.56
2022-10-09T09:15:29.374Z,96576.63
2022-10-09T09:18:08.048Z,96496.97
2022-10-09T09:20:48.522Z,96522.28
2022-10-09T09:23:17.381Z,96541.25
2022-10-09T09:25:46.690Z,96558.13
2022-10-09T09:28:21.207Z,96564.69
2022-10-09T09:30:52.855Z,96545.72
2022-10-09T09:33:26.503Z,96431.25
2022-10-09T09:36:07.687Z,96561.22
2022-10-09T09:38:54.186Z,96551.66
2022-10-09T09:41:29.041Z,96555.56
2022-10-09T09:43:58.388Z,96552.94
2022-10-09T09:46:33.253Z,96530.75
2022-10-09T09:49:03.001Z,96552.38
2022-10-09T09:51:34.174Z,96386.66
2022-10-09T09:54:07.173Z,96555.78
2022-10-09T09:56:59.810Z,96554.50
2022-10-09T09:59:32.314Z,96555.28
2022-10-09T10:02:09.783Z,96444.50
2022-10-09T10:04:42.417Z,96524.56
2022-10-09T10:07:10.924Z,96514.06
2022-10-09T10:09:38.592Z,96443.44
2022-10-09T10:12:09.136Z,96534.84
2022-10-09T10:14:38.246Z,96540.09
2022-10-09T10:17:06.111Z,96533.72
2022-10-09T10:19:35.497Z,96530.28
2022-10-09T10:22:07.329Z,96527.03
2022-10-09T10:24:41.566Z,96389.00
2022-10-09T10:27:15.084Z,96470.88
2022-10-09T10:29:46.396Z,96523.94
2022-10-09T10:32:19.938Z,96525.06
2022-10-09T10:34:52.786Z,96497.91
2022-10-09T10:37:30.316Z,96494.25
2022-10-09T10:40:02.693Z,96446.81
2022-10-09T10:42:37.637Z,96499.16
2022-10-09T10:45:17.003Z,96509.66
2022-10-09T10:47:50.232Z,96456.75
2022-10-09T10:50:18.315Z,96508.06
2022-10-09T10:53:01.645Z,96503.94
2022-10-09T10:55:40.861Z,96431.53
2022-10-09T10:58:23.547Z,96502.03
2022-10-09T11:01:07.512Z,96497.88
2022-10-09T11:03:51.903Z,96494.41
2022-10-09T11:06:24.749Z,96494.63
2022-10-09T11:09:02.324Z,96395.66
2022-10-09T11:11:39.154Z,96497.00
2022-10-09T11:14:20.395Z,96464.06
2022-10-09T11:17:01.598Z,96447.25
2022-10-09T11:19:57.093Z,96484.56
2022-10-09T11:22:40.650Z,96456.81
2022-10-09T11:25:27.935Z,96412.78
2022-10-09T11:28:03.173Z,96433.34
2022-10-09T11:30:37.708Z,96386.97
2022-10-09T11:33:24.880Z,96448.44
2022-10-09T11:35:59.797Z,96354.47
2022-10-09T11:38:30.033Z,96463.44
2022-10-09T11:41:01.534Z,96432.66
2022-10-09T11:43:54.477Z,96443.28
2022-10-09T11:46:33.145Z,96442.16
2022-10-09T11:49:11.444Z,96410.88
2022-10-09T11:51:46.996Z,96398.44
2022-10-09T11:54:17.634Z,96452.56
2022-10-09T11:56:55.152Z,96450.94
2022-10-09T11:59:26.077Z,96394.72
2022-10-09T12:01:53.954Z,96375.69
2022-10-09T12:04:43.535Z,96447.09
2022-10-09T12:07:15.592Z,96403.00
2022-10-09T12:09:45.555Z,96438.97
2022-10-09T12:12:23.439Z,96421.84
2022-10-09T12:14:52.727Z,96397.75
2022-10-09T12:17:35.305Z,96432.16
2022-10-09T12:20:08.531Z,96424.31
2022-10-09T12:22:41.539Z,96419.97
2022-10-09T12:25:18.065Z,96418.94
2022-10-09T12:27:46.352Z,96419.22
2022-10-09T12:30:21.910Z,96379.47
2022-10-09T12:32:56.146Z,96391.66
2022-10-09T12:35:29.867Z,96414.19
2022-10-09T12:37:58.040Z,96277.13
2022-10-09T12:40:28.776Z,96289.94
2022-10-09T12:43:01.247Z,96314.66
2022-10-09T12:45:34.986Z,96376.19
2022-10-09T12:48:13.423Z,96384.59
2022-10-09T12:50:42.965Z,96375.72
2022-10-09T12:53:15.291Z,96265.59
2022-10-09T12:55:45.658Z,96322.38
2022-10-09T12:58:17.259Z,96366.47
2022-10-09T13:00:46.825Z,96378.88
2022-10-09T13:03:35.274Z,96324.84
2022-10-09T13:06:06.801Z,96334.06
2022-10-09T13:08:37.474Z,96348.13
2022-10-09T13:11:13.199Z,96233.25
2022-10-09T13:13:41.645Z,96263.69
2022-10-09T13:16:10.875Z,96353.28
2022-10-09T13:18:39.465Z,96253.91
2022-10-09T13:21:24.515Z,96284.09
2022-10-09T13:23:52.313Z,96299.94
2022-10-09T13:26:25.247Z,96332.09
2022-10-09T13:28:53.483Z,96352.78
2022-10-09T13:31:21.502Z,96355.25
2022-10-09T13:33:49.584Z,96347.28
2022-10-09T13:36:19.876Z,96336.97
2022-10-09T13:38:48.965Z,96327.34
2022-10-09T13:41:20.339Z,96315.34
2022-10-09T13:43:48.852Z,96282.47
2022-10-09T13:46:17.191Z,96351.22
2022-10-09T13:48:44.927Z,96275.44
2022-10-09T13:51:12.889Z,96283.91
2022-10-09T13:53:42.040Z,96195.75
2022-10-09T13:56:09.788Z,96286.47
2022-10-09T13:58:37.738Z,96329.97
2022-10-09T14:01:05.765Z,96318.75
2022-10-09T14:03:33.520Z,96186.56
2022-10-09T14:06:03.591Z,96330.44
2022-10-09T14:08:31.767Z,96192.53
2022-10-09T14:11:02.153Z,96296.97
2022-10-09T14:13:30.082Z,96323.63
2022-10-09T14:15:57.823Z,96323.81
2022-10-09T14:18:26.032Z,96319.56
2022-10-09T14:20:53.759Z,96215.94
2022-10-09T14:23:21.903Z,96191.94
2022-10-09T14:25:49.604Z,96293.78
2022-10-09T14:28:18.816Z,96310.31
2022-10-09T14:30:46.535Z,96281.31
2022-10-09T14:33:14.378Z,96220.88
2022-10-09T14:35:42.234Z,96248.66
2022-10-09T14:38:09.933Z,96281.09
2022-10-09T14:40:43.049Z,96281.44
2022-10-09T14:43:11.031Z,96251.31
2022-10-09T14:45:40.200Z,96152.50
2022-10-09T14:48:08.086Z,96136.00
2022-10-09T14:50:37.110Z,96216.31
2022-10-09T14:53:06.016Z,96233.94
2022-10-09T14:55:35.949Z,96208.19
2022-10-09T14:58:03.708Z,96164.09
2022-10-09T15:00:31.413Z,96273.59
2022-10-09T15:03:00.695Z,96220.13
2022-10-09T15:05:28.380Z,96256.03
2022-10-09T15:07:56.035Z,96274.88
2022-10-09T15:10:23.759Z,96233.78
2022-10-09T15:12:51.433Z,96268.41
2022-10-09T15:15:19.231Z,96265.72
2022-10-09T15:17:47.209Z,96245.16
2022-10-09T15:20:16.679Z,96263.06
2022-10-09T15:22:44.784Z,96227.47
2022-10-09T15:25:12.555Z,96215.22
2022-10-09T15:27:40.308Z,96170.81
2022-10-09T15:30:09.359Z,96264.56
2022-10-09T15:32:37.139Z,96197.22
2022-10-09T15:35:05.380Z,96238.91
2022-10-09T15:37:34.758Z,96193.53
2022-10-09T15:40:02.519Z,96254.09
2022-10-09T15:42:30.377Z,96210.63
2022-10-09T15:44:58.107Z,96179.66
2022-10-09T15:47:49.576Z,96252.75
2022-10-09T15:50:13.568Z,96238.16
2022-10-09T15:52:42.640Z,96248.38
2022-10-09T15:55:10.493Z,96172.34
2022-10-09T15:57:38.270Z,96192.47
2022-10-09T16:00:07.482Z,96192.03
2022-10-09T16:02:35.250Z,96236.78
2022-10-09T16:05:03.032Z,96213.50
2022-10-09T16:07:32.297Z,96243.66
2022-10-09T16:10:01.424Z,96240.72
2022-10-09T16:12:31.145Z,96127.28
2022-10-09T16:15:00.359Z,96139.81
2022-10-09T16:17:28.390Z,96190.25
2022-10-09T16:19:56.286Z,96188.44
2022-10-09T16:22:24.200Z,96229.84
2022-10-09T16:24:52.094Z,96192.63
2022-10-09T16:27:21.317Z,96158.13
2022-10-09T16:29:49.227Z,96166.50
2022-10-09T16:32:17.177Z,96111.28
2022-10-09T16:34:44.969Z,96192.47
2022-10-09T16:37:12.750Z,96138.16
2022-10-09T16:39:40.731Z,96149.09
2022-10-09T16:42:08.611Z,96111.25
2022-10-09T16:44:37.787Z,96075.94
2022-10-09T16:47:05.691Z,96203.63
2022-10-09T16:49:33.570Z,96129.72
2022-10-09T16:52:01.910Z,96114.53
2022-10-09T16:54:29.697Z,96172.84
2022-10-09T16:56:58.254Z,96160.22
2022-10-09T16:59:26.156Z,96120.06
2022-10-09T17:01:57.152Z,96145.34
2022-10-09T17:04:25.062Z,96217.50
2022-10-09T17:06:53.534Z,96188.84
2022-10-09T17:09:21.646Z,96137.69
2022-10-09T17:11:49.812Z,96181.78
2022-10-09T17:14:18.159Z,96127.59
2022-10-09T17:16:46.030Z,96119.38
2022-10-09T17:19:16.047Z,96127.19
2022-10-09T17:21:44.553Z,96041.59
2022-10-09T17:24:14.674Z,96146.09
2022-10-09T17:26:42.923Z,96209.94
2022-10-09T17:29:11.278Z,96173.06
2022-10-09T17:31:39.127Z,96158.88
2022-10-09T17:34:07.776Z,96183.88
2022-10-09T17:36:38.687Z,96193.75
2022-10-09T17:39:09.769Z,96170.28
2022-10-09T17:41:37.971Z,96181.50
2022-10-09T17:44:05.956Z,96174.63
2022-10-09T17:46:34.151Z,96125.81
2022-10-09T17:49:02.124Z,96124.19
2022-10-09T17:51:31.956Z,96188.84
2022-10-09T17:54:05.874Z,96191.72
2022-10-09T17:56:36.132Z,96086.00
2022-10-09T17:59:04.905Z,96079.44
2022-10-09T18:01:33.184Z,96208.47
2022-10-09T18:04:01.458Z,96208.28
2022-10-09T18:06:33.071Z,96148.75
2022-10-09T18:09:02.859Z,96182.06
2022-10-09T18:11:31.212Z,96051.81
2022-10-09T18:13:59.071Z,96160.41
2022-10-09T18:16:38.464Z,96123.91
2022-10-09T18:19:11.272Z,96131.81
2022-10-09T18:21:40.258Z,96194.34
2022-10-09T18:24:09.541Z,96179.66
2022-10-09T18:26:37.695Z,96139.22
2022-10-09T18:29:08.062Z,96161.59
2022-10-09T18:31:36.932Z,96167.34
2022-10-09T18:34:04.796Z,96065.09
2022-10-09T18:36:34.223Z,96101.34
2022-10-09T18:39:04.849Z,96168.91
2022-10-09T18:41:34.240Z,95997.56
2022-10-09T18:44:02.991Z,96168.41
2022-10-09T18:46:36.948Z,96148.22
2022-10-09T18:49:09.492Z,96132.66
2022-10-09T18:51:40.139Z,96003.63
2022-10-09T18:54:08.815Z,96133.25
2022-10-09T18:56:39.048Z,96108.72
2022-10-09T18:59:09.851Z,96143.19
2022-10-09T19:01:37.746Z,96142.44
2022-10-09T19:04:06.123Z,96158.50
2022-10-09T19:06:33.892Z,96119.84
2022-10-09T19:09:01.665Z,96153.22
2022-10-09T19:11:29.982Z,96007.88
2022-10-09T19:14:00.779Z,96071.22
2022-10-09T19:16:29.315Z,96060.72
2022-10-09T19:18:57.228Z,96047.34
2022-10-09T19:21:25.432Z,96047.59
2022-10-09T19:23:54.808Z,96138.06
2022-10-09T19:26:23.140Z,96117.56
2022-10-09T19:28:50.987Z,96129.91
2022-10-09T19:31:20.263Z,96163.34
2022-10-09T19:33:48.530Z,95954.28
2022-10-09T19:36:16.510Z,96138.56
2022-10-09T19:38:45.035Z,96128.56
2022-10-09T19:41:14.737Z,96102.84
2022-10-09T19:43:42.837Z,96119.91
2022-10-09T19:46:14.067Z,96076.03
2022-10-09T19:48:43.271Z,96034.47
2022-10-09T19:51:12.541Z,96100.72
2022-10-09T19:53:40.762Z,96100.97
2022-10-09T19:56:11.426Z,96031.31
2022-10-09T19:58:40.828Z,96004.50
2022-10-09T20:01:09.117Z,96076.53
2022-10-09T20:03:37.984Z,96051.03
2022-10-09T20:06:08.564Z,96062.63
2022-10-09T20:08:37.137Z,96089.16
2022-10-09T20:11:06.606Z,96114.38
2022-10-09T20:13:36.113Z,96109.38
2022-10-09T20:16:18.449Z,96105.47
